createdAt,value
2022-10-31T00:04:50.631Z,10.20
2022-10-31T00:07:17.235Z,10.20
2022-10-31T00:09:43.806Z,10.20
2022-10-31T00:12:10.374Z,10.10
2022-10-31T00:14:36.998Z,10.90
2022-10-31T00:17:03.583Z,10.10
2022-10-31T00:19:30.208Z,10.10
2022-10-31T00:21:56.831Z,10.90
2022-10-31T00:24:23.539Z,10.10
2022-10-31T00:26:50.129Z,10.80
2022-10-31T00:29:16.735Z,10.20
2022-10-31T00:31:43.395Z,10.10
2022-10-31T00:34:09.965Z,10.10
2022-10-31T00:36:36.617Z,12.00
2022-10-31T00:39:03.306Z,10.60
2022-10-31T00:41:30.666Z,10.00
2022-10-31T00:43:57.471Z,10.00
2022-10-31T00:46:24.116Z,10.10
2022-10-31T00:48:50.733Z,10.10
2022-10-31T00:51:17.313Z,10.10
2022-10-31T00:53:43.937Z,10.30
2022-10-31T00:56:10.519Z,10.00
2022-10-31T00:58:37.190Z,10.00
2022-10-31T01:01:04.297Z,10.00
2022-10-31T01:03:32.142Z,10.10
2022-10-31T01:05:59.877Z,10.20
2022-10-31T01:08:26.626Z,10.00
2022-10-31T01:11:19.426Z,10.00
2022-10-31T01:13:46.806Z,10.00
2022-10-31T01:16:14.720Z,9.90
2022-10-31T01:18:41.337Z,10.60
2022-10-31T01:21:11.900Z,10.10
2022-10-31T01:23:38.945Z,9.90
2022-10-31T01:26:08.391Z,9.80
2022-10-31T01:28:36.285Z,9.80
2022-10-31T01:31:04.868Z,9.80
2022-10-31T01:33:31.489Z,9.80
2022-10-31T01:35:58.366Z,9.80
2022-10-31T01:38:25.433Z,9.80
2022-10-31T01:40:52.532Z,9.90
2022-10-31T01:45:53.712Z,9.90
2022-10-31T01:48:21.962Z,8.20
2022-10-31T01:50:49.366Z,10.00
2022-10-31T01:53:16.702Z,9.90
2022-10-31T01:55:44.956Z,10.00
2022-10-31T01:58:14.266Z,10.00
2022-10-31T02:00:43.330Z,10.10
2022-10-31T02:03:10.643Z,10.70
2022-10-31T02:05:37.298Z,10.00
2022-10-31T02:08:21.357Z,9.90
2022-10-31T02:10:47.989Z,10.00
2022-10-31T02:13:14.709Z,10.20
2022-10-31T02:15:42.607Z,9.90
2022-10-31T02:18:09.458Z,9.90
2022-10-31T02:20:47.230Z,9.80
2022-10-31T02:23:16.598Z,9.80
2022-10-31T02:25:52.119Z,9.80
2022-10-31T02:28:37.555Z,10.00
2022-10-31T02:31:21.469Z,11.20
2022-10-31T02:33:53.404Z,9.70
2022-10-31T02:36:35.029Z,9.70
2022-10-31T02:39:07.681Z,9.70
2022-10-31T02:41:54.518Z,9.60
2022-10-31T02:44:23.878Z,9.60
2022-10-31T02:46:53.303Z,9.70
2022-10-31T02:49:32.200Z,9.60
2022-10-31T02:51:59.018Z,9.60
2022-10-31T02:54:27.113Z,9.60
2022-10-31T02:57:00.357Z,9.80
2022-10-31T02:59:27.705Z,10.00
2022-10-31T03:02:05.332Z,9.60
2022-10-31T03:04:38.103Z,9.60
2022-10-31T03:07:08.945Z,9.50
2022-10-31T03:09:47.542Z,10.00
2022-10-31T03:12:18.193Z,9.50
2022-10-31T03:14:52.503Z,9.50
2022-10-31T03:17:23.518Z,9.50
2022-10-31T03:19:51.716Z,9.60
2022-10-31T03:22:23.075Z,9.50
2022-10-31T03:24:50.660Z,9.50
2022-10-31T03:27:19.695Z,9.50
2022-10-31T03:29:47.274Z,9.50
2022-10-31T03:32:16.348Z,9.50
2022-10-31T03:34:44.352Z,9.50
2022-10-31T03:37:13.038Z,9.50
2022-10-31T03:39:41.962Z,9.50
2022-10-31T03:42:11.237Z,9.50
2022-10-31T03:44:39.939Z,9.50
2022-10-31T03:47:06.529Z,9.40
2022-10-31T03:49:33.810Z,9.40
2022-10-31T03:52:08.569Z,9.40
2022-10-31T03:54:40.404Z,9.40
2022-10-31T03:57:16.267Z,9.30
2022-10-31T03:59:47.963Z,9.30
2022-10-31T04:02:16.428Z,9.30
2022-10-31T04:04:45.024Z,9.40
2022-10-31T04:07:12.167Z,9.30
2022-10-31T04:09:40.648Z,9.30
2022-10-31T04:12:09.794Z,9.30
2022-10-31T04:14:37.542Z,9.30
2022-10-31T04:17:05.019Z,9.50
2022-10-31T04:19:33.140Z,9.70
2022-10-31T04:21:59.696Z,9.30
2022-10-31T04:24:26.335Z,10.90
2022-10-31T04:26:52.915Z,9.20
2022-10-31T04:29:19.497Z,9.40
2022-10-31T04:31:46.067Z,9.60
2022-10-31T04:34:12.743Z,9.60
2022-10-31T04:36:39.453Z,9.10
2022-10-31T04:39:06.090Z,9.10
2022-10-31T04:41:32.651Z,9.00
2022-10-31T04:43:59.366Z,9.00
2022-10-31T04:46:26.081Z,9.90
2022-10-31T04:48:52.710Z,9.00
2022-10-31T04:51:19.261Z,9.00
2022-10-31T04:53:45.832Z,9.00
2022-10-31T04:56:12.406Z,8.90
2022-10-31T04:58:38.986Z,8.90
2022-10-31T05:01:05.726Z,8.90
2022-10-31T05:03:32.363Z,8.90
2022-10-31T05:05:58.951Z,8.90
2022-10-31T05:08:25.512Z,8.90
2022-10-31T05:10:52.924Z,8.80
2022-10-31T05:15:51.141Z,8.80
2022-10-31T05:18:18.308Z,8.80
2022-10-31T05:20:44.886Z,8.80
2022-10-31T05:23:11.467Z,8.80
2022-10-31T05:25:38.026Z,8.80
2022-10-31T05:28:04.717Z,8.70
2022-10-31T05:30:32.246Z,8.70
2022-10-31T05:32:59.201Z,8.70
2022-10-31T05:35:27.163Z,8.70
2022-10-31T05:37:53.918Z,8.70
2022-10-31T05:40:21.114Z,8.70
2022-10-31T05:42:47.987Z,8.70
2022-10-31T05:45:16.382Z,8.70
2022-10-31T05:47:43.096Z,8.70
2022-10-31T05:50:10.362Z,8.60
2022-10-31T05:52:37.248Z,8.60
2022-10-31T05:55:03.985Z,8.60
2022-10-31T05:57:32.598Z,8.60
2022-10-31T05:59:59.158Z,8.60
2022-10-31T06:02:26.170Z,8.60
2022-10-31T06:04:52.818Z,9.20
2022-10-31T06:07:19.480Z,8.50
2022-10-31T06:09:46.214Z,8.50
2022-10-31T06:12:12.790Z,8.50
2022-10-31T06:14:39.493Z,9.80
2022-10-31T06:17:06.050Z,9.60
2022-10-31T06:19:32.619Z,8.50
2022-10-31T06:21:59.181Z,8.60
2022-10-31T06:24:25.766Z,8.60
2022-10-31T06:26:52.332Z,8.60
2022-10-31T06:29:19.041Z,8.60
2022-10-31T06:31:45.618Z,8.70
2022-10-31T06:34:12.214Z,8.70
2022-10-31T06:36:39.117Z,8.80
2022-10-31T06:39:05.775Z,8.80
2022-10-31T06:41:32.391Z,8.90
2022-10-31T06:43:58.971Z,8.90
2022-10-31T06:46:25.602Z,8.90
2022-10-31T06:48:52.181Z,9.00
2022-10-31T06:51:18.776Z,9.10
2022-10-31T06:53:45.407Z,10.20
2022-10-31T06:56:12.041Z,9.60
2022-10-31T06:58:38.611Z,9.20
2022-10-31T07:01:05.359Z,9.30
2022-10-31T07:03:32.085Z,9.30
2022-10-31T07:05:58.908Z,9.50
2022-10-31T07:08:25.637Z,9.50
2022-10-31T07:10:56.154Z,9.50
2022-10-31T07:13:26.408Z,9.60
2022-10-31T07:16:00.359Z,9.70
2022-10-31T07:18:27.096Z,9.80
2022-10-31T07:20:53.997Z,9.90
2022-10-31T07:23:20.635Z,10.00
2022-10-31T07:25:47.338Z,10.10
2022-10-31T07:28:13.915Z,10.20
2022-10-31T07:30:40.565Z,10.70
2022-10-31T07:33:07.355Z,10.40
2022-10-31T07:35:35.706Z,10.60
2022-10-31T07:38:12.082Z,10.60
2022-10-31T07:40:38.895Z,10.80
2022-10-31T07:43:08.871Z,10.90
2022-10-31T07:45:39.789Z,12.60
2022-10-31T07:48:06.540Z,11.20
2022-10-31T07:50:36.354Z,11.30
2022-10-31T07:53:07.269Z,11.40
2022-10-31T07:55:34.198Z,11.50
2022-10-31T07:58:02.529Z,12.80
2022-10-31T08:00:29.743Z,11.80
2022-10-31T08:03:00.496Z,11.90
2022-10-31T08:05:27.469Z,12.10
2022-10-31T08:07:54.055Z,12.20
2022-10-31T08:10:21.073Z,12.40
2022-10-31T08:12:47.984Z,12.80
2022-10-31T08:15:14.659Z,12.60
2022-10-31T08:17:41.278Z,12.80
2022-10-31T08:20:08.131Z,12.90
2022-10-31T08:22:36.034Z,13.10
2022-10-31T08:25:05.514Z,13.20
2022-10-31T08:27:32.176Z,13.40
2022-10-31T08:29:59.457Z,13.60
2022-10-31T08:32:26.127Z,13.80
2022-10-31T08:34:52.782Z,14.10
2022-10-31T08:37:20.918Z,14.30
2022-10-31T08:39:47.751Z,14.30
2022-10-31T08:42:14.540Z,14.60
2022-10-31T08:44:41.222Z,14.80
2022-10-31T08:47:07.933Z,15.10
2022-10-31T08:49:34.500Z,15.40
2022-10-31T08:52:01.062Z,15.80
2022-10-31T08:54:27.799Z,16.00
2022-10-31T08:56:54.932Z,16.40
2022-10-31T08:59:21.492Z,16.70
2022-10-31T09:01:48.257Z,16.80
2022-10-31T09:04:14.853Z,16.90
2022-10-31T09:06:50.346Z,16.90
2022-10-31T09:09:22.220Z,17.00
2022-10-31T09:11:48.790Z,17.10
2022-10-31T09:14:15.374Z,17.20
2022-10-31T09:16:41.955Z,17.20
2022-10-31T09:19:11.441Z,17.10
2022-10-31T09:21:38.410Z,17.20
2022-10-31T09:24:05.388Z,17.50
2022-10-31T09:26:31.962Z,17.50
2022-10-31T09:28:59.504Z,17.60
2022-10-31T09:31:26.074Z,17.60
2022-10-31T09:33:53.970Z,17.60
2022-10-31T09:36:20.617Z,17.60
2022-10-31T09:38:47.170Z,17.60
2022-10-31T09:41:16.758Z,17.80
2022-10-31T09:44:02.327Z,18.00
2022-10-31T09:46:39.546Z,18.10
2022-10-31T09:49:25.184Z,18.30
2022-10-31T09:51:56.467Z,18.50
2022-10-31T09:54:31.086Z,18.70
2022-10-31T09:56:58.677Z,18.80
2022-10-31T09:59:27.846Z,19.00
2022-10-31T10:01:57.493Z,19.20
2022-10-31T10:04:33.411Z,19.40
2022-10-31T10:07:01.204Z,19.60
2022-10-31T10:09:27.876Z,19.70
2022-10-31T10:12:06.449Z,19.40
2022-10-31T10:14:42.984Z,19.70
2022-10-31T10:17:30.331Z,19.90
2022-10-31T10:20:13.623Z,20.00
2022-10-31T10:23:06.730Z,20.30
2022-10-31T10:25:33.300Z,20.60
2022-10-31T10:28:05.959Z,20.90
2022-10-31T10:30:51.467Z,21.00
2022-10-31T10:33:41.320Z,21.20
2022-10-31T10:36:11.466Z,21.20
2022-10-31T10:38:41.226Z,21.30
2022-10-31T10:41:14.117Z,21.30
2022-10-31T10:43:40.723Z,21.40
2022-10-31T10:46:32.071Z,21.50
2022-10-31T10:49:01.480Z,21.60
2022-10-31T10:54:27.563Z,22.10
2022-10-31T10:57:13.177Z,22.20
2022-10-31T10:59:39.862Z,22.20
2022-10-31T11:02:17.175Z,22.20
2022-10-31T11:04:44.154Z,22.20
2022-10-31T11:07:11.433Z,22.20
2022-10-31T11:09:38.865Z,22.30
2022-10-31T11:12:10.377Z,22.40
2022-10-31T11:14:44.347Z,22.60
2022-10-31T11:17:17.576Z,22.80
2022-10-31T11:19:44.260Z,23.50
2022-10-31T11:22:17.070Z,24.60
2022-10-31T11:24:44.084Z,25.40
2022-10-31T11:27:14.251Z,26.20
2022-10-31T11:32:15.784Z,27.00
2022-10-31T11:34:46.870Z,27.10
2022-10-31T11:37:19.738Z,27.10
2022-10-31T11:39:54.115Z,27.40
2022-10-31T11:42:25.469Z,27.30
2022-10-31T11:44:53.486Z,27.30
2022-10-31T11:47:25.352Z,27.30
2022-10-31T11:49:52.030Z,27.10
2022-10-31T11:52:21.143Z,26.70
2022-10-31T11:55:15.261Z,26.50
2022-10-31T11:57:52.426Z,26.40
2022-10-31T12:00:23.843Z,25.90
2022-10-31T12:02:50.991Z,25.40
2022-10-31T12:05:24.623Z,24.80
2022-10-31T12:07:51.304Z,24.60
2022-10-31T12:10:19.185Z,24.30
2022-10-31T12:12:51.023Z,23.80
2022-10-31T12:15:17.595Z,23.40
2022-10-31T12:17:56.356Z,23.10
2022-10-31T12:20:41.444Z,22.90
2022-10-31T12:23:11.074Z,22.70
2022-10-31T12:25:49.942Z,22.20
2022-10-31T12:28:28.695Z,22.10
2022-10-31T12:31:04.773Z,22.10
2022-10-31T12:33:49.584Z,21.90
2022-10-31T12:36:54.868Z,21.90
2022-10-31T12:39:39.283Z,22.10
2022-10-31T12:42:05.854Z,22.30
2022-10-31T12:44:53.869Z,22.60
2022-10-31T12:47:23.163Z,22.90
2022-10-31T12:50:00.115Z,23.10
2022-10-31T12:52:41.939Z,23.30
2022-10-31T12:55:27.060Z,23.40
2022-10-31T12:57:55.465Z,23.50
2022-10-31T13:00:25.229Z,23.70
2022-10-31T13:03:00.474Z,24.10
2022-10-31T13:05:29.942Z,24.30
2022-10-31T13:08:00.204Z,24.60
2022-10-31T13:10:31.079Z,25.00
2022-10-31T13:13:01.909Z,25.20
2022-10-31T13:15:31.035Z,25.10
2022-10-31T13:17:59.166Z,25.10
2022-10-31T13:20:31.937Z,24.50
2022-10-31T13:23:23.407Z,24.10
2022-10-31T13:25:56.748Z,23.90
2022-10-31T13:28:26.950Z,23.60
2022-10-31T13:30:54.009Z,23.30
2022-10-31T13:33:29.716Z,23.10
2022-10-31T13:36:05.581Z,23.00
2022-10-31T13:38:39.029Z,22.80
2022-10-31T13:41:05.606Z,22.60
2022-10-31T13:43:50.852Z,22.40
2022-10-31T13:46:46.907Z,22.40
2022-10-31T13:49:31.856Z,22.30
2022-10-31T13:52:10.720Z,22.20
2022-10-31T13:54:56.579Z,22.00
2022-10-31T13:57:33.100Z,21.90
2022-10-31T14:00:04.277Z,21.80
2022-10-31T14:02:35.418Z,21.70
2022-10-31T14:05:03.878Z,21.70
2022-10-31T14:07:31.184Z,21.70
2022-10-31T14:10:20.295Z,21.80
2022-10-31T14:12:47.821Z,22.10
2022-10-31T14:15:14.455Z,22.60
2022-10-31T14:17:52.469Z,23.10
2022-10-31T14:20:19.051Z,23.50
2022-10-31T14:22:45.758Z,24.10
2022-10-31T14:25:30.890Z,24.60
2022-10-31T14:27:58.342Z,24.80
2022-10-31T14:30:26.429Z,24.80
2022-10-31T14:32:54.441Z,24.30
2022-10-31T14:35:21.901Z,24.00
2022-10-31T14:37:57.478Z,23.70
2022-10-31T14:40:32.237Z,23.40
2022-10-31T14:42:59.146Z,23.00
2022-10-31T14:45:35.285Z,22.70
2022-10-31T14:48:11.198Z,22.40
2022-10-31T14:50:47.074Z,22.20
2022-10-31T14:53:16.503Z,22.00
2022-10-31T14:55:46.053Z,21.70
2022-10-31T14:58:16.398Z,21.60
2022-10-31T15:00:44.010Z,21.40
2022-10-31T15:03:16.701Z,21.20
2022-10-31T15:05:47.285Z,21.00
2022-10-31T15:08:34.296Z,20.80
2022-10-31T15:11:04.553Z,20.70
2022-10-31T15:13:31.280Z,20.40
2022-10-31T15:15:58.184Z,20.20
2022-10-31T15:18:26.222Z,20.20
2022-10-31T15:20:53.705Z,20.10
2022-10-31T15:23:23.387Z,20.00
2022-10-31T15:25:50.196Z,20.00
2022-10-31T15:28:25.551Z,20.00
2022-10-31T15:30:53.752Z,19.80
2022-10-31T15:33:21.774Z,19.80
2022-10-31T15:36:03.720Z,19.60
2022-10-31T15:38:30.478Z,19.50
2022-10-31T15:41:02.651Z,19.40
2022-10-31T15:43:32.569Z,19.20
2022-10-31T15:45:59.528Z,19.10
2022-10-31T15:48:26.239Z,19.00
2022-10-31T15:50:54.883Z,18.90
2022-10-31T15:53:23.357Z,18.80
2022-10-31T15:55:55.779Z,18.70
2022-10-31T15:58:23.049Z,18.60
2022-10-31T16:01:18.862Z,18.60
2022-10-31T16:03:57.672Z,18.50
2022-10-31T16:06:24.370Z,18.30
2022-10-31T16:08:51.322Z,18.20
2022-10-31T16:11:22.664Z,18.10
2022-10-31T16:13:57.944Z,17.90
2022-10-31T16:16:40.215Z,17.90
2022-10-31T16:19:15.341Z,17.70
2022-10-31T16:21:42.859Z,17.60
2022-10-31T16:24:31.060Z,17.50
2022-10-31T16:27:06.158Z,17.40
2022-10-31T16:29:42.216Z,17.20
2022-10-31T16:32:28.307Z,17.10
2022-10-31T16:35:02.691Z,16.90
2022-10-31T16:37:29.770Z,16.80
2022-10-31T16:39:56.334Z,16.60
2022-10-31T16:42:23.046Z,16.50
2022-10-31T16:44:50.036Z,16.30
2022-10-31T16:47:17.302Z,16.10
2022-10-31T16:49:44.867Z,16.00
2022-10-31T16:52:11.563Z,15.90
2022-10-31T16:54:38.304Z,15.70
2022-10-31T16:57:05.720Z,15.60
2022-10-31T16:59:34.251Z,15.50
2022-10-31T17:02:01.437Z,15.40
2022-10-31T17:04:28.137Z,15.30
2022-10-31T17:06:54.714Z,15.20
2022-10-31T17:09:21.289Z,15.10
2022-10-31T17:11:50.056Z,14.90
2022-10-31T17:14:17.413Z,14.80
2022-10-31T17:16:44.098Z,14.70
2022-10-31T17:19:11.511Z,14.70
2022-10-31T17:21:38.513Z,14.60
2022-10-31T17:24:05.289Z,14.40
2022-10-31T17:26:32.034Z,14.40
2022-10-31T17:29:01.841Z,14.30
2022-10-31T17:31:29.813Z,14.20
2022-10-31T17:34:02.117Z,14.10
2022-10-31T17:36:30.316Z,14.10
2022-10-31T17:38:56.941Z,14.00
2022-10-31T17:41:23.577Z,14.00
2022-10-31T17:43:54.605Z,13.90
2022-10-31T17:46:21.180Z,13.90
2022-10-31T17:48:47.774Z,13.70
2022-10-31T17:51:14.425Z,13.70
2022-10-31T17:53:41.003Z,13.60
2022-10-31T17:56:08.445Z,13.60
2022-10-31T17:58:35.958Z,13.50
2022-10-31T18:01:08.030Z,13.50
2022-10-31T18:03:34.729Z,13.40
2022-10-31T18:06:01.357Z,13.60
2022-10-31T18:08:28.929Z,13.30
2022-10-31T18:10:56.251Z,13.30
2022-10-31T18:13:22.912Z,13.30
2022-10-31T18:15:49.626Z,13.20
2022-10-31T18:18:16.307Z,13.10
2022-10-31T18:20:43.544Z,13.00
2022-10-31T18:23:10.266Z,12.90
2022-10-31T18:25:38.858Z,13.10
2022-10-31T18:28:06.286Z,12.90
2022-10-31T18:30:33.177Z,12.80
2022-10-31T18:32:59.890Z,13.30
2022-10-31T18:35:26.502Z,12.80
2022-10-31T18:37:53.114Z,12.70
2022-10-31T18:40:19.673Z,12.70
2022-10-31T18:42:46.268Z,12.60
2022-10-31T18:45:31.317Z,12.60
2022-10-31T18:47:59.889Z,13.50
2022-10-31T18:50:26.847Z,12.50
2022-10-31T18:52:53.439Z,12.40
2022-10-31T18:55:20.033Z,12.30
2022-10-31T18:57:46.716Z,12.20
2022-10-31T19:00:14.328Z,12.10
2022-10-31T19:02:40.890Z,12.20
2022-10-31T19:05:07.709Z,13.10
2022-10-31T19:07:34.306Z,12.10
2022-10-31T19:10:00.919Z,12.50
2022-10-31T19:12:27.520Z,12.00
2022-10-31T19:14:54.506Z,11.90
2022-10-31T19:17:21.129Z,11.90
2022-10-31T19:19:47.763Z,11.80
2022-10-31T19:22:14.358Z,11.70
2022-10-31T19:24:41.132Z,11.70
2022-10-31T19:27:09.665Z,11.70
2022-10-31T19:29:36.318Z,12.30
2022-10-31T19:32:02.944Z,11.60
2022-10-31T19:34:29.520Z,11.60
2022-10-31T19:36:56.102Z,11.50
2022-10-31T19:39:22.670Z,11.50
2022-10-31T19:41:49.442Z,11.50
2022-10-31T19:44:16.296Z,11.40
2022-10-31T19:46:59.986Z,11.90
2022-10-31T19:49:26.662Z,11.20
2022-10-31T19:51:54.007Z,11.20
2022-10-31T19:54:20.716Z,11.30
2022-10-31T19:56:47.350Z,11.90
2022-10-31T19:59:14.031Z,11.20
2022-10-31T20:01:40.673Z,11.20
2022-10-31T20:04:07.377Z,11.20
2022-10-31T20:06:36.054Z,13.00
2022-10-31T20:09:04.063Z,11.70
2022-10-31T20:11:30.770Z,11.00
2022-10-31T20:13:58.384Z,12.40
2022-10-31T20:16:25.722Z,11.00
2022-10-31T20:18:52.657Z,10.90
2022-10-31T20:21:21.042Z,11.00
2022-10-31T20:23:47.679Z,11.00
2022-10-31T20:26:16.219Z,10.80
2022-10-31T20:28:43.789Z,10.80
2022-10-31T20:31:11.804Z,10.80
2022-10-31T20:33:38.602Z,10.70
2022-10-31T20:36:06.323Z,11.10
2022-10-31T20:38:33.011Z,10.70
2022-10-31T20:41:03.905Z,10.60
2022-10-31T20:43:31.434Z,10.60
2022-10-31T20:46:01.635Z,10.60
2022-10-31T20:48:28.455Z,10.60
2022-10-31T20:50:59.063Z,10.50
2022-10-31T20:53:25.892Z,10.50
2022-10-31T20:56:06.867Z,10.40
2022-10-31T20:58:35.118Z,10.40
2022-10-31T21:01:01.797Z,10.40
2022-10-31T21:03:28.579Z,10.40
2022-10-31T21:05:59.527Z,10.30
2022-10-31T21:08:26.832Z,10.30
2022-10-31T21:10:53.722Z,10.20
2022-10-31T21:13:20.497Z,10.60
2022-10-31T21:15:47.410Z,10.20
2022-10-31T21:18:14.880Z,10.30
2022-10-31T21:20:43.684Z,10.10
2022-10-31T21:23:10.836Z,10.10
2022-10-31T21:25:38.671Z,10.50
2022-10-31T21:28:05.361Z,10.10
2022-10-31T21:30:31.952Z,10.00
2022-10-31T21:32:58.649Z,10.00
2022-10-31T21:35:25.307Z,10.70
2022-10-31T21:37:51.903Z,10.00
2022-10-31T21:40:18.509Z,10.00
2022-10-31T21:42:45.097Z,9.90
2022-10-31T21:45:11.671Z,9.90
2022-10-31T21:47:38.311Z,9.90
2022-10-31T21:50:05.090Z,9.90
2022-10-31T21:52:31.837Z,9.90
2022-10-31T21:54:58.423Z,10.00
2022-10-31T21:57:25.005Z,9.90
2022-10-31T21:59:51.686Z,9.90
2022-10-31T22:02:18.358Z,9.90
2022-10-31T22:04:45.586Z,9.90
2022-10-31T22:07:12.213Z,9.90
2022-10-31T22:09:41.034Z,10.10
2022-10-31T22:12:09.095Z,9.80
2022-10-31T22:14:35.948Z,10.20
2022-10-31T22:17:02.620Z,9.80
2022-10-31T22:19:29.197Z,10.20
2022-10-31T22:21:55.790Z,9.80
2022-10-31T22:24:22.375Z,9.80
2022-10-31T22:26:49.063Z,9.80
2022-10-31T22:29:17.321Z,9.90
2022-10-31T22:31:45.132Z,12.00
2022-10-31T22:34:12.426Z,10.00
2022-10-31T22:36:39.096Z,10.00
2022-10-31T22:39:06.140Z,10.00
2022-10-31T22:41:34.027Z,10.00
2022-10-31T22:44:00.639Z,10.00
2022-10-31T22:46:29.740Z,10.00
2022-10-31T22:48:57.316Z,9.90
2022-10-31T22:51:25.696Z,11.10
2022-10-31T22:53:52.413Z,9.90
2022-10-31T22:56:20.582Z,9.90
2022-10-31T22:58:47.658Z,9.90
2022-10-31T23:01:15.518Z,10.00
2022-10-31T23:03:42.446Z,9.80
2022-10-31T23:06:10.955Z,9.80
2022-10-31T23:08:38.054Z,9.70
2022-10-31T23:11:17.150Z,9.80
2022-10-31T23:14:03.336Z,9.70
2022-10-31T23:16:30.002Z,9.70
2022-10-31T23:18:56.576Z,9.70
2022-10-31T23:21:42.242Z,9.70
2022-10-31T23:24:08.844Z,9.60
2022-10-31T23:26:54.002Z,9.60
2022-10-31T23:29:20.577Z,9.60
2022-10-31T23:31:47.956Z,9.70
2022-10-31T23:34:14.526Z,9.50
2022-10-31T23:36:41.189Z,9.60
2022-10-31T23:39:07.767Z,9.50
2022-10-31T23:41:34.357Z,9.50
2022-10-31T23:44:00.936Z,9.40
2022-10-31T23:46:27.515Z,9.50
2022-10-31T23:48:54.096Z,9.50
2022-10-31T23:51:21.597Z,10.20
2022-10-31T23:53:48.176Z,9.60
2022-10-31T23:56:14.733Z,9.60
2022-10-31T23:58:41.321Z,9.60
